sensor_id;sensor_type;location;lat;lon;timestamp;pressure;altitude;pressure_sealevel;temperature
65316;BMP280;51920;53.952;10.292;2023-07-13T00:01:48;100817.53;;;15.88
65316;BMP280;51920;53.952;10.292;2023-07-13T00:04:20;100831.56;;;15.90
65316;BMP280;51920;53.952;10.292;2023-07-13T00:06:47;100830.47;;;15.87
65316;BMP280;51920;53.952;10.292;2023-07-13T00:09:15;100825.81;;;15.84
65316;BMP280;51920;53.952;10.292;2023-07-13T00:11:43;100821.09;;;15.85
65316;BMP280;51920;53.952;10.292;2023-07-13T00:14:11;100811.38;;;15.84
65316;BMP280;51920;53.952;10.292;2023-07-13T00:16:39;100820.75;;;15.83
65316;BMP280;51920;53.952;10.292;2023-07-13T00:19:07;100811.16;;;15.75
65316;BMP280;51920;53.952;10.292;2023-07-13T00:21:35;100802.22;;;15.70
65316;BMP280;51920;53.952;10.292;2023-07-13T00:24:02;100811.16;;;15.75
65316;BMP280;51920;53.952;10.292;2023-07-13T00:26:29;100803.44;;;15.69
65316;BMP280;51920;53.952;10.292;2023-07-13T00:28:55;100817.00;;;15.73
65316;BMP280;51920;53.952;10.292;2023-07-13T00:31:22;100813.19;;;15.67
65316;BMP280;51920;53.952;10.292;2023-07-13T00:33:49;100805.06;;;15.63
65316;BMP280;51920;53.952;10.292;2023-07-13T00:36:15;100813.94;;;15.67
65316;BMP280;51920;53.952;10.292;2023-07-13T00:38:42;100814.81;;;15.64
65316;BMP280;51920;53.952;10.292;2023-07-13T00:41:09;100796.97;;;15.56
65316;BMP280;51920;53.952;10.292;2023-07-13T00:43:37;100815.63;;;15.61
65316;BMP280;51920;53.952;10.292;2023-07-13T00:46:16;100808.72;;;15.53
65316;BMP280;51920;53.952;10.292;2023-07-13T00:48:45;100809.44;;;15.57
65316;BMP280;51920;53.952;10.292;2023-07-13T00:51:16;100806.44;;;15.48
65316;BMP280;51920;53.952;10.292;2023-07-13T00:53:44;100828.97;;;15.56
65316;BMP280;51920;53.952;10.292;2023-07-13T00:56:11;100820.44;;;15.54
65316;BMP280;51920;53.952;10.292;2023-07-13T00:58:38;100812.66;;;15.52
65316;BMP280;51920;53.952;10.292;2023-07-13T01:01:05;100812.66;;;15.52
65316;BMP280;51920;53.952;10.292;2023-07-13T01:03:31;100820.84;;;15.52
65316;BMP280;51920;53.952;10.292;2023-07-13T01:05:59;100801.47;;;15.43
65316;BMP280;51920;53.952;10.292;2023-07-13T01:08:25;100809.66;;;15.43
65316;BMP280;51920;53.952;10.292;2023-07-13T01:10:54;100795.25;;;15.39
65316;BMP280;51920;53.952;10.292;2023-07-13T01:13:21;100810.38;;;15.47
65316;BMP280;51920;53.952;10.292;2023-07-13T01:15:50;100811.91;;;15.48
65316;BMP280;51920;53.952;10.292;2023-07-13T01:18:24;100805.00;;;15.40
65316;BMP280;51920;53.952;10.292;2023-07-13T01:21:01;100814.34;;;15.42
65316;BMP280;51920;53.952;10.292;2023-07-13T01:23:29;100815.94;;;15.40
65316;BMP280;51920;53.952;10.292;2023-07-13T01:25:57;100813.97;;;15.40
65316;BMP280;51920;53.952;10.292;2023-07-13T01:28:25;100806.19;;;15.39
65316;BMP280;51920;53.952;10.292;2023-07-13T01:30:55;100805.16;;;15.29
65316;BMP280;51920;53.952;10.292;2023-07-13T01:33:23;100811.75;;;15.32
65316;BMP280;51920;53.952;10.292;2023-07-13T01:35:50;100795.94;;;15.19
65316;BMP280;51920;53.952;10.292;2023-07-13T01:38:21;100807.25;;;15.18
65316;BMP280;51920;53.952;10.292;2023-07-13T01:40:50;100794.94;;;15.06
65316;BMP280;51920;53.952;10.292;2023-07-13T01:43:17;100801.41;;;15.16
65316;BMP280;51920;53.952;10.292;2023-07-13T01:45:44;100820.03;;;15.24
65316;BMP280;51920;53.952;10.292;2023-07-13T01:48:12;100812.19;;;15.26
65316;BMP280;51920;53.952;10.292;2023-07-13T01:50:40;100798.28;;;15.17
65316;BMP280;51920;53.952;10.292;2023-07-13T01:53:07;100800.16;;;15.24
65316;BMP280;51920;53.952;10.292;2023-07-13T01:55:35;100808.34;;;15.24
65316;BMP280;51920;53.952;10.292;2023-07-13T01:58:02;100797.06;;;15.22
65316;BMP280;51920;53.952;10.292;2023-07-13T02:00:30;100806.00;;;15.22
65316;BMP280;51920;53.952;10.292;2023-07-13T02:02:57;100772.38;;;15.02
65316;BMP280;51920;53.952;10.292;2023-07-13T02:05:23;100788.63;;;15.13
65316;BMP280;51920;53.952;10.292;2023-07-13T02:07:50;100803.75;;;15.17
65316;BMP280;51920;53.952;10.292;2023-07-13T02:10:17;100794.78;;;15.17
65316;BMP280;51920;53.952;10.292;2023-07-13T02:12:44;100793.75;;;15.03
65316;BMP280;51920;53.952;10.292;2023-07-13T02:15:11;100808.53;;;15.10
65316;BMP280;51920;53.952;10.292;2023-07-13T02:17:38;100798.81;;;15.05
65316;BMP280;51920;53.952;10.292;2023-07-13T02:20:05;100807.31;;;15.11
65316;BMP280;51920;53.952;10.292;2023-07-13T02:22:32;100795.34;;;15.04
65316;BMP280;51920;53.952;10.292;2023-07-13T02:24:59;100800.75;;;15.08
65316;BMP280;51920;53.952;10.292;2023-07-13T02:27:26;100804.28;;;15.05
65316;BMP280;51920;53.952;10.292;2023-07-13T02:29:53;100802.31;;;15.05
65316;BMP280;51920;53.952;10.292;2023-07-13T02:32:20;100798.50;;;14.99
65316;BMP280;51920;53.952;10.292;2023-07-13T02:34:47;100800.47;;;14.99
65316;BMP280;51920;53.952;10.292;2023-07-13T02:37:14;100796.59;;;14.96
65316;BMP280;51920;53.952;10.292;2023-07-13T02:39:44;100784.63;;;14.87
65316;BMP280;51920;53.952;10.292;2023-07-13T02:42:10;100804.03;;;14.96
65316;BMP280;51920;53.952;10.292;2023-07-13T02:44:37;100809.56;;;14.89
65316;BMP280;51920;53.952;10.292;2023-07-13T02:47:03;100807.59;;;14.89
65316;BMP280;51920;53.952;10.292;2023-07-13T02:49:30;100806.13;;;14.85
65316;BMP280;51920;53.952;10.292;2023-07-13T02:51:57;100793.28;;;14.81
65316;BMP280;51920;53.952;10.292;2023-07-13T02:54:24;100803.38;;;14.85
65316;BMP280;51920;53.952;10.292;2023-07-13T02:56:51;100796.28;;;14.91
65316;BMP280;51920;53.952;10.292;2023-07-13T02:59:17;100787.75;;;14.89
65316;BMP280;51920;53.952;10.292;2023-07-13T03:01:44;100795.47;;;14.94
65316;BMP280;51920;53.952;10.292;2023-07-13T03:04:11;100793.91;;;14.93
65316;BMP280;51920;53.952;10.292;2023-07-13T03:06:39;100791.56;;;14.95
65316;BMP280;51920;53.952;10.292;2023-07-13T03:09:05;100785.38;;;14.91
65316;BMP280;51920;53.952;10.292;2023-07-13T03:11:34;100782.19;;;14.96
65316;BMP280;51920;53.952;10.292;2023-07-13T03:14:14;100791.47;;;15.02
65316;BMP280;51920;53.952;10.292;2023-07-13T03:16:41;100786.81;;;15.02
65316;BMP280;51920;53.952;10.292;2023-07-13T03:19:08;100794.53;;;15.08
65316;BMP280;51920;53.952;10.292;2023-07-13T03:21:35;100787.97;;;15.01
65316;BMP280;51920;53.952;10.292;2023-07-13T03:24:02;100788.28;;;15.07
65316;BMP280;51920;53.952;10.292;2023-07-13T03:26:29;100782.00;;;15.10
65316;BMP280;51920;53.952;10.292;2023-07-13T03:28:56;100785.09;;;15.12
65316;BMP280;51920;53.952;10.292;2023-07-13T03:31:28;100785.03;;;15.16
65316;BMP280;51920;53.952;10.292;2023-07-13T03:33:56;100794.03;;;15.16
65316;BMP280;51920;53.952;10.292;2023-07-13T03:36:25;100787.47;;;15.10
65316;BMP280;51920;53.952;10.292;2023-07-13T03:38:57;100785.09;;;15.12
65316;BMP280;51920;53.952;10.292;2023-07-13T03:41:31;100790.91;;;15.14
65316;BMP280;51920;53.952;10.292;2023-07-13T03:43:58;100793.53;;;15.21
65316;BMP280;51920;53.952;10.292;2023-07-13T03:46:26;100783.41;;;15.22
65316;BMP280;51920;53.952;10.292;2023-07-13T03:48:53;100794.66;;;15.27
65316;BMP280;51920;53.952;10.292;2023-07-13T03:51:20;100801.97;;;15.34
65316;BMP280;51920;53.952;10.292;2023-07-13T03:53:47;100806.19;;;15.39
65316;BMP280;51920;53.952;10.292;2023-07-13T03:56:18;100796.41;;;15.41
65316;BMP280;51920;53.952;10.292;2023-07-13T03:58:46;100798.34;;;15.41
65316;BMP280;51920;53.952;10.292;2023-07-13T04:01:18;100797.91;;;15.46
65316;BMP280;51920;53.952;10.292;2023-07-13T04:03:45;100801.00;;;15.48
65316;BMP280;51920;53.952;10.292;2023-07-13T04:06:16;100804.09;;;15.50
65316;BMP280;51920;53.952;10.292;2023-07-13T04:08:49;100808.34;;;15.51
65316;BMP280;51920;53.952;10.292;2023-07-13T04:11:18;100805.97;;;15.53
65316;BMP280;51920;53.952;10.292;2023-07-13T04:13:45;100802.78;;;15.58
65316;BMP280;51920;53.952;10.292;2023-07-13T04:16:14;100803.94;;;15.61
65316;BMP280;51920;53.952;10.292;2023-07-13T04:18:41;100817.88;;;15.66
65316;BMP280;51920;53.952;10.292;2023-07-13T04:21:08;100813.56;;;15.69
65316;BMP280;51920;53.952;10.292;2023-07-13T04:23:38;100817.00;;;15.73
65316;BMP280;51920;53.952;10.292;2023-07-13T04:26:05;100811.16;;;15.75
65316;BMP280;51920;53.952;10.292;2023-07-13T04:28:33;100816.03;;;15.83
65316;BMP280;51920;53.952;10.292;2023-07-13T04:31:02;100810.59;;;15.83
65316;BMP280;51920;53.952;10.292;2023-07-13T04:33:29;100812.53;;;15.83
65316;BMP280;51920;53.952;10.292;2023-07-13T04:35:56;100816.84;;;15.84
65316;BMP280;51920;53.952;10.292;2023-07-13T04:38:25;100813.28;;;15.87
65316;BMP280;51920;53.952;10.292;2023-07-13T04:40:52;100807.69;;;15.94
65316;BMP280;51920;53.952;10.292;2023-07-13T04:43:19;100808.59;;;16.11
65316;BMP280;51920;53.952;10.292;2023-07-13T04:45:45;100807.50;;;16.28
65316;BMP280;51920;53.952;10.292;2023-07-13T04:48:12;100800.16;;;16.45
65316;BMP280;51920;53.952;10.292;2023-07-13T04:50:39;100799.47;;;16.61
65316;BMP280;51920;53.952;10.292;2023-07-13T04:53:06;100810.59;;;16.74
65316;BMP280;51920;53.952;10.292;2023-07-13T04:55:33;100810.38;;;16.85
65316;BMP280;51920;53.952;10.292;2023-07-13T04:57:59;100810.13;;;16.95
65316;BMP280;51920;53.952;10.292;2023-07-13T05:00:26;100804.38;;;17.10
65316;BMP280;51920;53.952;10.292;2023-07-13T05:02:54;100809.00;;;17.13
65316;BMP280;51920;53.952;10.292;2023-07-13T05:05:25;100809.28;;;17.35
65316;BMP280;51920;53.952;10.292;2023-07-13T05:07:53;100809.06;;;17.45
65316;BMP280;51920;53.952;10.292;2023-07-13T05:10:20;100822.41;;;17.60
65316;BMP280;51920;53.952;10.292;2023-07-13T05:12:47;100829.66;;;17.66
65316;BMP280;51920;53.952;10.292;2023-07-13T05:15:14;100833.72;;;17.78
65316;BMP280;51920;53.952;10.292;2023-07-13T05:17:41;100834.38;;;17.82
65316;BMP280;51920;53.952;10.292;2023-07-13T05:20:09;100838.16;;;18.05
65316;BMP280;51920;53.952;10.292;2023-07-13T05:22:36;100839.06;;;18.14
65316;BMP280;51920;53.952;10.292;2023-07-13T05:25:07;100841.69;;;18.34
65316;BMP280;51920;53.952;10.292;2023-07-13T05:27:34;100842.97;;;18.59
65316;BMP280;51920;53.952;10.292;2023-07-13T05:30:03;100845.13;;;18.80
65316;BMP280;51920;53.952;10.292;2023-07-13T05:32:30;100838.31;;;18.85
65316;BMP280;51920;53.952;10.292;2023-07-13T05:34:56;100841.09;;;18.98
65316;BMP280;51920;53.952;10.292;2023-07-13T05:37:23;100846.50;;;19.14
65316;BMP280;51920;53.952;10.292;2023-07-13T05:39:50;100842.22;;;19.13
65316;BMP280;51920;53.952;10.292;2023-07-13T05:42:16;100837.56;;;19.10
65316;BMP280;51920;53.952;10.292;2023-07-13T05:44:43;100845.16;;;19.06
65316;BMP280;51920;53.952;10.292;2023-07-13T05:47:10;100850.31;;;19.30
65316;BMP280;51920;53.952;10.292;2023-07-13T05:49:37;100859.09;;;18.99
65316;BMP280;51920;53.952;10.292;2023-07-13T05:52:04;100867.88;;;19.07
65316;BMP280;51920;53.952;10.292;2023-07-13T05:54:32;100857.63;;;19.23
65316;BMP280;51920;53.952;10.292;2023-07-13T05:56:59;100866.50;;;19.40
65316;BMP280;51920;53.952;10.292;2023-07-13T05:59:25;100864.91;;;19.78
65316;BMP280;51920;53.952;10.292;2023-07-13T06:01:52;100862.13;;;20.03
65316;BMP280;51920;53.952;10.292;2023-07-13T06:04:19;100865.44;;;20.20
65316;BMP280;51920;53.952;10.292;2023-07-13T06:06:46;100855.69;;;20.06
65316;BMP280;51920;53.952;10.292;2023-07-13T06:09:13;100858.69;;;19.64
65316;BMP280;51920;53.952;10.292;2023-07-13T06:11:40;100857.47;;;19.40
65316;BMP280;51920;53.952;10.292;2023-07-13T06:14:06;100857.91;;;19.25
65316;BMP280;51920;53.952;10.292;2023-07-13T06:16:34;100857.78;;;19.03
65316;BMP280;51920;53.952;10.292;2023-07-13T06:19:02;100862.84;;;19.05
65316;BMP280;51920;53.952;10.292;2023-07-13T06:21:28;100868.41;;;18.89
65316;BMP280;51920;53.952;10.292;2023-07-13T06:23:55;100862.28;;;18.85
65316;BMP280;51920;53.952;10.292;2023-07-13T06:26:22;100866.53;;;18.86
65316;BMP280;51920;53.952;10.292;2023-07-13T06:28:49;100871.44;;;18.78
65316;BMP280;51920;53.952;10.292;2023-07-13T06:31:16;100873.19;;;18.72
65316;BMP280;51920;53.952;10.292;2023-07-13T06:33:43;100872.44;;;18.71
65316;BMP280;51920;53.952;10.292;2023-07-13T06:36:11;100874.50;;;18.67
65316;BMP280;51920;53.952;10.292;2023-07-13T06:38:38;100867.91;;;18.65
65316;BMP280;51920;53.952;10.292;2023-07-13T06:41:07;100874.19;;;18.65
65316;BMP280;51920;53.952;10.292;2023-07-13T06:43:34;100873.38;;;18.65
65316;BMP280;51920;53.952;10.292;2023-07-13T06:46:01;100871.53;;;18.62
65316;BMP280;51920;53.952;10.292;2023-07-13T06:48:28;100879.66;;;18.65
65316;BMP280;51920;53.952;10.292;2023-07-13T06:50:55;100870.09;;;18.70
65316;BMP280;51920;53.952;10.292;2023-07-13T06:53:23;100871.38;;;18.81
65316;BMP280;51920;53.952;10.292;2023-07-13T06:55:50;100878.97;;;19.03
65316;BMP280;51920;53.952;10.292;2023-07-13T06:58:18;100876.28;;;19.29
65316;BMP280;51920;53.952;10.292;2023-07-13T07:00:45;100888.69;;;19.59
65316;BMP280;51920;53.952;10.292;2023-07-13T07:03:12;100886.34;;;19.83
65316;BMP280;51920;53.952;10.292;2023-07-13T07:05:40;100886.97;;;19.87
65316;BMP280;51920;53.952;10.292;2023-07-13T07:08:06;100887.69;;;19.78
65316;BMP280;51920;53.952;10.292;2023-07-13T07:10:34;100887.00;;;19.74
65316;BMP280;51920;53.952;10.292;2023-07-13T07:13:02;100892.16;;;19.85
65316;BMP280;51920;53.952;10.292;2023-07-13T07:15:29;100885.03;;;19.75
65316;BMP280;51920;53.952;10.292;2023-07-13T07:17:56;100882.38;;;19.84
65316;BMP280;51920;53.952;10.292;2023-07-13T07:20:23;100888.53;;;19.88
65316;BMP280;51920;53.952;10.292;2023-07-13T07:22:50;100883.25;;;19.93
65316;BMP280;51920;53.952;10.292;2023-07-13T07:25:17;100892.47;;;19.87
65316;BMP280;51920;53.952;10.292;2023-07-13T07:27:44;100886.81;;;20.16
65316;BMP280;51920;53.952;10.292;2023-07-13T07:30:13;100886.06;;;20.37
65316;BMP280;51920;53.952;10.292;2023-07-13T07:32:44;100894.41;;;20.69
65316;BMP280;51920;53.952;10.292;2023-07-13T07:35:14;100883.66;;;20.61
65316;BMP280;51920;53.952;10.292;2023-07-13T07:37:41;100883.56;;;20.52
65316;BMP280;51920;53.952;10.292;2023-07-13T07:40:10;100888.84;;;20.59
65316;BMP280;51920;53.952;10.292;2023-07-13T07:42:40;100885.38;;;20.46
65316;BMP280;51920;53.952;10.292;2023-07-13T07:45:07;100886.44;;;20.27
65316;BMP280;51920;53.952;10.292;2023-07-13T07:47:34;100882.16;;;20.26
65316;BMP280;51920;53.952;10.292;2023-07-13T07:50:01;100887.72;;;20.35
65316;BMP280;51920;53.952;10.292;2023-07-13T07:52:27;100891.13;;;20.83
65316;BMP280;51920;53.952;10.292;2023-07-13T07:54:54;100887.28;;;21.12
65316;BMP280;51920;53.952;10.292;2023-07-13T07:57:41;100879.03;;;21.61
65316;BMP280;51920;53.952;10.292;2023-07-13T08:00:11;100885.19;;;22.02
65316;BMP280;51920;53.952;10.292;2023-07-13T08:02:41;100885.81;;;22.43
65316;BMP280;51920;53.952;10.292;2023-07-13T08:05:28;100885.78;;;22.61
65316;BMP280;51920;53.952;10.292;2023-07-13T08:07:58;100878.25;;;22.71
65316;BMP280;51920;53.952;10.292;2023-07-13T08:10:25;100875.69;;;23.01
65316;BMP280;51920;53.952;10.292;2023-07-13T08:12:53;100877.06;;;22.96
65316;BMP280;51920;53.952;10.292;2023-07-13T08:15:22;100881.03;;;23.04
65316;BMP280;51920;53.952;10.292;2023-07-13T08:17:52;100880.13;;;23.31
65316;BMP280;51920;53.952;10.292;2023-07-13T08:20:19;100878.06;;;23.41
65316;BMP280;51920;53.952;10.292;2023-07-13T08:22:45;100887.28;;;23.86
65316;BMP280;51920;53.952;10.292;2023-07-13T08:25:12;100890.25;;;23.34
65316;BMP280;51920;53.952;10.292;2023-07-13T08:27:39;100878.84;;;23.65
65316;BMP280;51920;53.952;10.292;2023-07-13T08:30:07;100891.53;;;23.48
65316;BMP280;51920;53.952;10.292;2023-07-13T08:32:36;100883.53;;;23.74
65316;BMP280;51920;53.952;10.292;2023-07-13T08:35:03;100890.72;;;23.57
65316;BMP280;51920;53.952;10.292;2023-07-13T08:37:30;100889.53;;;23.49
65316;BMP280;51920;53.952;10.292;2023-07-13T08:39:57;100888.28;;;23.74
65316;BMP280;51920;53.952;10.292;2023-07-13T08:47:53;100895.41;;;23.41
65316;BMP280;51920;53.952;10.292;2023-07-13T08:50:25;100891.72;;;23.44
65316;BMP280;51920;53.952;10.292;2023-07-13T08:52:54;100888.34;;;22.74
65316;BMP280;51920;53.952;10.292;2023-07-13T08:55:29;100888.03;;;22.81
65316;BMP280;51920;53.952;10.292;2023-07-13T08:58:10;100886.72;;;22.49
65316;BMP280;51920;53.952;10.292;2023-07-13T09:00:45;100888.91;;;22.08
65316;BMP280;51920;53.952;10.292;2023-07-13T09:03:22;100890.88;;;21.98
65316;BMP280;51920;53.952;10.292;2023-07-13T09:05:57;100894.44;;;22.08
65316;BMP280;51920;53.952;10.292;2023-07-13T09:11:29;100891.28;;;23.13
65316;BMP280;51920;53.952;10.292;2023-07-13T09:14:34;100896.06;;;23.12
65316;BMP280;51920;53.952;10.292;2023-07-13T09:17:08;100897.25;;;22.69
65316;BMP280;51920;53.952;10.292;2023-07-13T09:19:36;100889.06;;;22.93
65316;BMP280;51920;53.952;10.292;2023-07-13T09:22:10;100889.50;;;23.01
65316;BMP280;51920;53.952;10.292;2023-07-13T09:25:24;100897.19;;;22.87
65316;BMP280;51920;53.952;10.292;2023-07-13T09:27:40;100896.91;;;22.76
65316;BMP280;51920;53.952;10.292;2023-07-13T09:32:46;100904.34;;;23.36
65316;BMP280;51920;53.952;10.292;2023-07-13T09:35:18;100902.41;;;23.76
65316;BMP280;51920;53.952;10.292;2023-07-13T09:37:46;100902.88;;;23.26
65316;BMP280;51920;53.952;10.292;2023-07-13T09:40:40;100905.66;;;23.74
65316;BMP280;51920;53.952;10.292;2023-07-13T09:43:13;100909.72;;;24.56
65316;BMP280;51920;53.952;10.292;2023-07-13T09:45:40;100902.63;;;24.70
65316;BMP280;51920;53.952;10.292;2023-07-13T09:48:11;100906.34;;;24.67
65316;BMP280;51920;53.952;10.292;2023-07-13T09:50:41;100911.28;;;24.93
65316;BMP280;51920;53.952;10.292;2023-07-13T09:53:14;100915.41;;;24.82
65316;BMP280;51920;53.952;10.292;2023-07-13T09:55:42;100908.22;;;25.05
65316;BMP280;51920;53.952;10.292;2023-07-13T09:58:17;100910.78;;;25.29
65316;BMP280;51920;53.952;10.292;2023-07-13T10:00:55;100912.47;;;25.42
65316;BMP280;51920;53.952;10.292;2023-07-13T10:03:27;100911.03;;;25.11
65316;BMP280;51920;53.952;10.292;2023-07-13T10:06:03;100901.84;;;25.20
65316;BMP280;51920;53.952;10.292;2023-07-13T10:08:35;100899.34;;;25.22
65316;BMP280;51920;53.952;10.292;2023-07-13T10:11:12;100901.78;;;25.34
65316;BMP280;51920;53.952;10.292;2023-07-13T10:13:56;100892.38;;;25.67
65316;BMP280;51920;53.952;10.292;2023-07-13T10:16:25;100890.13;;;25.71
65316;BMP280;51920;53.952;10.292;2023-07-13T10:18:57;100890.44;;;25.53
65316;BMP280;51920;53.952;10.292;2023-07-13T10:21:30;100884.50;;;25.86
65316;BMP280;51920;53.952;10.292;2023-07-13T10:24:14;100881.63;;;26.01
65316;BMP280;51920;53.952;10.292;2023-07-13T10:32:35;100850.25;;;25.48
65316;BMP280;51920;53.952;10.292;2023-07-13T10:35:31;100889.09;;;24.93
65316;BMP280;51920;53.952;10.292;2023-07-13T10:38:05;100888.91;;;24.31
65316;BMP280;51920;53.952;10.292;2023-07-13T10:40:39;100895.00;;;24.06
65316;BMP280;51920;53.952;10.292;2023-07-13T10:43:25;100918.34;;;23.09
65316;BMP280;51920;53.952;10.292;2023-07-13T10:45:53;100950.94;;;21.85
65316;BMP280;51920;53.952;10.292;2023-07-13T10:48:28;100936.81;;;19.76
65316;BMP280;51920;53.952;10.292;2023-07-13T10:51:14;100965.41;;;19.66
65316;BMP280;51920;53.952;10.292;2023-07-13T10:53:44;100922.97;;;19.29
65316;BMP280;51920;53.952;10.292;2023-07-13T10:56:28;100959.78;;;19.31
65316;BMP280;51920;53.952;10.292;2023-07-13T11:01:57;100949.94;;;19.04
65316;BMP280;51920;53.952;10.292;2023-07-13T11:04:39;100911.97;;;18.74
65316;BMP280;51920;53.952;10.292;2023-07-13T11:07:28;100944.34;;;19.08
65316;BMP280;51920;53.952;10.292;2023-07-13T11:10:00;100903.44;;;18.85
65316;BMP280;51920;53.952;10.292;2023-07-13T11:12:52;100944.06;;;19.19
65316;BMP280;51920;53.952;10.292;2023-07-13T11:15:47;100939.56;;;19.25
65316;BMP280;51920;53.952;10.292;2023-07-13T11:18:22;100934.63;;;19.45
65316;BMP280;51920;53.952;10.292;2023-07-13T11:21:19;100929.66;;;19.53
65316;BMP280;51920;53.952;10.292;2023-07-13T11:24:04;100912.31;;;19.56
65316;BMP280;51920;53.952;10.292;2023-07-13T11:26:52;100914.84;;;20.24
65316;BMP280;51920;53.952;10.292;2023-07-13T11:29:37;100936.22;;;20.76
65316;BMP280;51920;53.952;10.292;2023-07-13T11:32:23;100952.38;;;20.96
65316;BMP280;51920;53.952;10.292;2023-07-13T11:34:53;100949.50;;;21.00
65316;BMP280;51920;53.952;10.292;2023-07-13T11:37:21;100948.34;;;21.41
65316;BMP280;51920;53.952;10.292;2023-07-13T11:39:51;100957.09;;;21.49
65316;BMP280;51920;53.952;10.292;2023-07-13T11:42:20;100956.03;;;21.46
65316;BMP280;51920;53.952;10.292;2023-07-13T11:44:50;100936.53;;;21.31
65316;BMP280;51920;53.952;10.292;2023-07-13T11:47:30;100914.97;;;21.39
65316;BMP280;51920;53.952;10.292;2023-07-13T11:50:19;100940.34;;;21.03
65316;BMP280;51920;53.952;10.292;2023-07-13T11:52:50;100961.50;;;21.06
65316;BMP280;51920;53.952;10.292;2023-07-13T11:55:23;100941.84;;;20.73
65316;BMP280;51920;53.952;10.292;2023-07-13T11:58:01;100968.41;;;21.10
65316;BMP280;51920;53.952;10.292;2023-07-13T12:00:38;100952.19;;;21.44
65316;BMP280;51920;53.952;10.292;2023-07-13T12:03:13;100957.91;;;21.59
65316;BMP280;51920;53.952;10.292;2023-07-13T12:09:16;100971.28;;;21.38
65316;BMP280;51920;53.952;10.292;2023-07-13T12:11:50;100964.47;;;21.21
65316;BMP280;51920;53.952;10.292;2023-07-13T12:14:33;100950.28;;;21.00
65316;BMP280;51920;53.952;10.292;2023-07-13T12:17:09;100958.16;;;20.67
65316;BMP280;51920;53.952;10.292;2023-07-13T12:19:41;100961.34;;;20.66
65316;BMP280;51920;53.952;10.292;2023-07-13T12:22:26;100958.03;;;20.71
65316;BMP280;51920;53.952;10.292;2023-07-13T12:25:01;100962.19;;;20.53
65316;BMP280;51920;53.952;10.292;2023-07-13T12:27:32;100989.13;;;20.58
65316;BMP280;51920;53.952;10.292;2023-07-13T12:30:30;100951.44;;;19.99
65316;BMP280;51920;53.952;10.292;2023-07-13T12:33:24;100976.81;;;20.03
65316;BMP280;51920;53.952;10.292;2023-07-13T12:35:57;100987.69;;;20.06
65316;BMP280;51920;53.952;10.292;2023-07-13T12:38:30;100969.47;;;19.61
65316;BMP280;51920;53.952;10.292;2023-07-13T12:41:02;101002.78;;;19.63
65316;BMP280;51920;53.952;10.292;2023-07-13T12:43:34;100992.09;;;19.40
65316;BMP280;51920;53.952;10.292;2023-07-13T12:46:20;101001.34;;;19.46
65316;BMP280;51920;53.952;10.292;2023-07-13T12:48:52;101002.78;;;19.51
65316;BMP280;51920;53.952;10.292;2023-07-13T12:51:27;100994.84;;;19.53
65316;BMP280;51920;53.952;10.292;2023-07-13T12:54:13;101021.91;;;19.80
65316;BMP280;51920;53.952;10.292;2023-07-13T12:57:04;100995.88;;;19.71
65316;BMP280;51920;53.952;10.292;2023-07-13T12:59:45;100991.69;;;19.80
65316;BMP280;51920;53.952;10.292;2023-07-13T13:05:02;101003.88;;;19.53
65316;BMP280;51920;53.952;10.292;2023-07-13T13:07:32;100991.06;;;19.34
65316;BMP280;51920;53.952;10.292;2023-07-13T13:10:14;101034.31;;;19.46
65316;BMP280;51920;53.952;10.292;2023-07-13T13:12:50;100998.22;;;19.18
65316;BMP280;51920;53.952;10.292;2023-07-13T13:15:29;101020.84;;;18.93
65316;BMP280;51920;53.952;10.292;2023-07-13T13:18:18;101019.25;;;18.79
65316;BMP280;51920;53.952;10.292;2023-07-13T13:20:50;101022.84;;;18.76
65316;BMP280;51920;53.952;10.292;2023-07-13T13:23:46;101056.41;;;19.13
65316;BMP280;51920;53.952;10.292;2023-07-13T13:26:31;101053.41;;;19.08
65316;BMP280;51920;53.952;10.292;2023-07-13T13:29:00;101038.44;;;18.79
65316;BMP280;51920;53.952;10.292;2023-07-13T13:31:29;101040.34;;;18.66
65316;BMP280;51920;53.952;10.292;2023-07-13T13:34:11;101065.19;;;18.59
65316;BMP280;51920;53.952;10.292;2023-07-13T13:36:42;101072.84;;;18.51
65316;BMP280;51920;53.952;10.292;2023-07-13T13:39:24;101030.56;;;18.16
65316;BMP280;51920;53.952;10.292;2023-07-13T13:41:54;101052.66;;;18.09
65316;BMP280;51920;53.952;10.292;2023-07-13T13:44:38;101039.59;;;17.97
65316;BMP280;51920;53.952;10.292;2023-07-13T13:47:29;101044.25;;;18.00
65316;BMP280;51920;53.952;10.292;2023-07-13T13:50:18;101017.63;;;18.00
65316;BMP280;51920;53.952;10.292;2023-07-13T13:52:49;101054.13;;;18.30
65316;BMP280;51920;53.952;10.292;2023-07-13T13:55:20;101044.31;;;18.49
65316;BMP280;51920;53.952;10.292;2023-07-13T13:58:04;101028.28;;;18.47
65316;BMP280;51920;53.952;10.292;2023-07-13T14:00:48;101020.47;;;18.46
65316;BMP280;51920;53.952;10.292;2023-07-13T14:03:43;101048.63;;;18.79
65316;BMP280;51920;53.952;10.292;2023-07-13T14:06:15;101039.13;;;18.84
65316;BMP280;51920;53.952;10.292;2023-07-13T14:10:18;101067.41;;;19.13
65316;BMP280;51920;53.952;10.292;2023-07-13T14:28:09;101054.84;;;18.34
65316;BMP280;51920;53.952;10.292;2023-07-13T14:47:53;101072.72;;;19.33
65316;BMP280;51920;53.952;10.292;2023-07-13T14:50:31;101071.03;;;19.23
65316;BMP280;51920;53.952;10.292;2023-07-13T14:52:58;101074.28;;;19.05
65316;BMP280;51920;53.952;10.292;2023-07-13T14:55:25;101085.94;;;18.93
65316;BMP280;51920;53.952;10.292;2023-07-13T14:57:54;101076.78;;;18.83
65316;BMP280;51920;53.952;10.292;2023-07-13T15:00:21;101085.81;;;18.67
65316;BMP280;51920;53.952;10.292;2023-07-13T15:02:52;101076.03;;;18.66
65316;BMP280;51920;53.952;10.292;2023-07-13T15:05:23;101077.56;;;18.84
65316;BMP280;51920;53.952;10.292;2023-07-13T15:07:51;101068.09;;;19.01